VTZ weather

Vishakhapatnam Airport
Visakhapatnam, Andhra Pradesh, India

Public forecast

Using degrees Celsius for public forecast. Weather courtesy of forecast.io.

METAR (pilot weather report)

Closest report is Rajahmundry Airport, 88.5 nm (163.9 km) WSW. Retrieved 2019/06/17 16:00 UTC (2 hours ago):

VORY 171600Z 31004KT 6000 SCT020 OVC090 28/21 Q1006 NOSIG

TAF (pilot weather forecast)

Retrieved 2019/06/17 12:00 UTC (6 hours ago):

TAF VOVZ 171100Z 1712/1818 30010KT 6000 FEW018 BKN080 TEMPO 1712/1714 3000 TSRA SCT014 FEW025CB OVC080 BECMG 1718/1720 28010KT 5000 BR FEW018 BKN090 BECMG 1800/1802 22008KT 4000 BR BECMG 1804/1806 28010KT 6000 TEMPO 1809/1813 23010G20KT FEW018 FEW025TCU/CB